Terminal Aerodrome Forecast
Issued by NWS

Home | Current Version | Previous Version | Text Only | Print | Product List | Glossary Off
Versions: 1 2 3 4 5 6 7 8 9 10 11 12 13

000
FTUS43 KMPX 260000 CCA
TAFRWF
TAF COR
KRWF 260005Z 2600/2624 02004KT P6SM -SHSN BKN012
      TEMPO 2600/2604 4SM -SN BKN007
     FM260400 36007KT 6SM -SHSN BR OVC010
      TEMPO 2604/2608 4SM -SN BR OVC007
     FM260800 35011KT 6SM -SHSN BR OVC006
     FM261600 34012KT P6SM OVC012=

USA.gov is the U.S. government's official web portal to all federal, state and local government web resources and services.